Time;durP1;ratioP1;P1;durP2;ratioP2;P2;SDS_P1;SDS_P2;PMS_P1;PMS_P2;Temp;Humidity;BMP_temperature;BMP_pressure;BME280_temperature;BME280_humidity;BME280_pressure;Samples;Min_cycle;Max_cycle;Signal;HPM_P1;HPM_P2
2022/12/05 00:00:49;;;;;;;0.10;0.10;;;2.80;99.90;;;;;;4987510;28;20061;-85
2022/12/05 00:03:16;;;;;;;0.10;0.10;;;;;;;;;;4989619;28;20129;-89
2022/12/05 00:05:43;;;;;;;0.00;0.00;;;3.00;99.90;;;;;;4982320;28;20522;-85
2022/12/05 00:08:11;;;;;;;0.10;0.10;;;3.00;99.90;;;;;;4990152;28;20101;-85
2022/12/05 00:10:38;;;;;;;0.10;0.10;;;;;;;;;;4986568;28;20043;-89
2022/12/05 00:13:06;;;;;;;0.10;0.10;;;;;;;;;;4990340;28;20066;-87
2022/12/05 00:15:35;;;;;;;0.10;0.10;;;2.80;99.90;;;;;;4986275;28;20948;-85
2022/12/05 00:18:02;;;;;;;0.10;0.10;;;2.80;99.90;;;;;;4990091;28;20084;-85
2022/12/05 00:20:29;;;;;;;0.00;0.00;;;;;;;;;;4985906;28;20133;-85
2022/12/05 00:22:56;;;;;;;0.05;0.05;;;3.40;99.90;;;;;;4989640;28;20105;-86
2022/12/05 00:25:24;;;;;;;0.10;0.10;;;2.90;99.90;;;;;;5002455;28;20133;-87
2022/12/05 00:27:51;;;;;;;0.10;0.10;;;3.00;99.90;;;;;;4989760;28;20066;-86
2022/12/05 00:30:18;;;;;;;0.10;0.10;;;2.90;99.90;;;;;;5003681;28;20085;-88
2022/12/05 00:32:45;;;;;;;0.05;0.05;;;;;;;;;;5003248;28;20481;-86
2022/12/05 00:35:12;;;;;;;0.10;0.10;;;3.00;99.90;;;;;;4983602;28;20134;-88
2022/12/05 00:37:39;;;;;;;0.10;0.10;;;;;;;;;;4986480;28;20047;-85
2022/12/05 00:40:07;;;;;;;0.08;0.08;;;2.70;99.90;;;;;;4984470;28;20046;-84
2022/12/05 00:42:36;;;;;;;0.10;0.10;;;2.80;99.90;;;;;;5005041;28;20076;-84
2022/12/05 00:45:03;;;;;;;0.10;0.10;;;2.80;99.90;;;;;;4990099;28;20118;-87
2022/12/05 00:47:30;;;;;;;0.10;0.10;;;;;;;;;;4989170;28;20081;-85
2022/12/05 00:49:57;;;;;;;0.10;0.10;;;;;;;;;;4986620;28;20077;-85
2022/12/05 00:52:25;;;;;;;0.00;0.00;;;2.80;99.90;;;;;;4990107;28;20159;-84
2022/12/05 00:54:52;;;;;;;0.10;0.10;;;2.90;99.90;;;;;;4989212;28;20513;-87
2022/12/05 00:57:19;;;;;;;0.10;0.10;;;2.90;99.90;;;;;;4989910;28;20108;-85
2022/12/05 00:59:47;;;;;;;0.10;0.10;;;2.90;99.90;;;;;;4984160;28;22037;-86
2022/12/05 01:02:15;;;;;;;0.10;0.10;;;;;;;;;;5004747;28;20039;-85
2022/12/05 01:04:42;;;;;;;0.00;0.00;;;;;;;;;;4986678;28;20039;-85
2022/12/05 01:07:09;;;;;;;0.10;0.10;;;;;;;;;;4987190;28;20078;-86
2022/12/05 01:09:36;;;;;;;0.10;0.10;;;;;;;;;;4990077;28;20084;-88
2022/12/05 01:12:04;;;;;;;0.10;0.10;;;2.90;99.90;;;;;;4987861;28;20082;-85
2022/12/05 01:14:31;;;;;;;0.00;0.00;;;3.00;99.90;;;;;;4983095;28;20086;-85
2022/12/05 01:16:59;;;;;;;0.10;0.10;;;3.00;99.90;;;;;;5002858;28;20555;-85
2022/12/05 01:19:29;;;;;;;0.08;0.08;;;3.00;99.90;;;;;;5002986;28;20522;-84
2022/12/05 01:21:56;;;;;;;0.10;0.10;;;3.00;99.90;;;;;;4988865;28;20129;-85
2022/12/05 01:24:25;;;;;;;0.10;0.10;;;3.10;99.90;;;;;;4986698;28;20169;-86
2022/12/05 01:26:52;;;;;;;0.10;0.10;;;3.00;99.90;;;;;;5005843;28;20069;-87
2022/12/05 01:29:21;;;;;;;0.10;0.10;;;3.20;99.90;;;;;;4987679;28;20050;-87
2022/12/05 01:31:48;;;;;;;0.10;0.10;;;;;;;;;;5004458;28;20072;-86
2022/12/05 01:34:17;;;;;;;0.10;0.10;;;3.20;99.90;;;;;;4990555;28;20491;-92
2022/12/05 01:36:45;;;;;;;0.10;0.10;;;3.20;99.90;;;;;;4987203;28;20482;-85
2022/12/05 01:39:13;;;;;;;0.00;0.00;;;3.30;99.90;;;;;;5001994;28;20042;-89
2022/12/05 01:41:43;;;;;;;0.10;0.10;;;4.30;99.90;;;;;;4986043;28;20093;-89
2022/12/05 01:44:24;;;;;;;;;;;3.20;99.90;;;;;;4990044;28;20142;-91
2022/12/05 01:46:52;;;;;;;0.10;0.10;;;;;;;;;;4986455;28;19921;-86
2022/12/05 01:49:24;;;;;;;0.10;0.10;;;3.30;99.90;;;;;;4990344;28;20447;-85
2022/12/05 01:51:53;;;;;;;0.10;0.10;;;3.30;99.90;;;;;;5009331;28;20082;-85
2022/12/05 01:54:21;;;;;;;0.10;0.10;;;3.30;99.90;;;;;;5005338;28;20133;-88
2022/12/05 01:56:52;;;;;;;0.10;0.10;;;3.30;99.90;;;;;;4991524;28;20534;-87
2022/12/05 01:59:21;;;;;;;0.10;0.10;;;3.40;99.90;;;;;;4983069;28;20053;-86
2022/12/05 02:01:48;;;;;;;0.10;0.10;;;;;;;;;;5003804;28;20133;-84
2022/12/05 02:04:15;;;;;;;0.10;0.10;;;;;;;;;;4986113;28;20525;-85
2022/12/05 02:06:44;;;;;;;0.10;0.10;;;3.10;99.90;;;;;;4991545;28;20077;-89
2022/12/05 02:09:11;;;;;;;0.10;0.10;;;;;;;;;;4990392;28;20082;-85
2022/12/05 02:11:46;;;;;;;0.05;0.05;;;3.20;99.90;;;;;;4992022;28;20078;-86
2022/12/05 02:14:25;;;;;;;0.03;0.03;;;3.10;99.90;;;;;;4993240;28;20531;-89
2022/12/05 02:17:01;;;;;;;0.05;0.05;;;3.10;99.90;;;;;;4993534;28;20074;-85
2022/12/05 02:19:49;;;;;;;0.10;0.10;;;5.60;99.90;;;;;;4989120;28;20058;-87
2022/12/05 02:22:45;;;;;;;0.10;0.10;;;3.10;99.90;;;;;;5008723;28;20112;-88
2022/12/05 02:25:43;;;;;;;0.10;0.10;;;3.10;99.90;;;;;;5006263;28;20465;-85
2022/12/05 02:28:35;;;;;;;0.10;0.10;;;3.10;99.90;;;;;;4986921;28;20496;-86
2022/12/05 02:31:09;;;;;;;0.05;0.05;;;3.20;99.90;;;;;;4977688;28;20133;-86
2022/12/05 02:33:43;;;;;;;0.10;0.10;;;3.20;99.90;;;;;;4989230;28;20050;-85
2022/12/05 02:36:15;;;;;;;0.00;0.00;;;4.20;99.90;;;;;;5007329;28;20130;-85
2022/12/05 02:38:50;;;;;;;0.05;0.05;;;3.20;99.90;;;;;;4991207;28;20124;-88
2022/12/05 02:41:22;;;;;;;0.10;0.10;;;3.10;99.90;;;;;;4985019;28;20050;-88
2022/12/05 02:43:53;;;;;;;0.10;0.10;;;3.10;99.90;;;;;;4988077;28;20105;-88
2022/12/05 02:46:24;;;;;;;0.00;0.00;;;3.20;99.90;;;;;;4988240;28;20073;-85
2022/12/05 02:48:55;;;;;;;0.10;0.10;;;3.30;99.90;;;;;;4999633;28;20046;-87
2022/12/05 02:51:26;;;;;;;0.10;0.10;;;3.30;99.90;;;;;;4989627;28;20590;-89
2022/12/05 02:53:56;;;;;;;0.20;0.20;;;3.20;99.90;;;;;;4988257;28;20157;-85
2022/12/05 02:56:24;;;;;;;0.10;0.10;;;3.30;99.90;;;;;;4988238;28;20140;-90
2022/12/05 02:58:53;;;;;;;0.10;0.10;;;3.30;99.90;;;;;;4987005;28;20496;-85
2022/12/05 03:01:24;;;;;;;0.10;0.10;;;3.30;99.90;;;;;;4987943;28;20486;-85
2022/12/05 03:03:51;;;;;;;0.10;0.10;;;;;;;;;;4989346;28;20050;-85
2022/12/05 03:06:21;;;;;;;0.10;0.10;;;3.30;99.90;;;;;;4988291;28;20491;-87
2022/12/05 03:08:54;;;;;;;0.10;0.10;;;3.30;99.90;;;;;;4986863;28;20089;-86
2022/12/05 03:11:21;;;;;;;0.10;0.10;;;3.20;99.90;;;;;;4990605;28;20078;-86
2022/12/05 03:13:51;;;;;;;0.10;0.10;;;3.20;99.90;;;;;;5004755;28;20733;-85
2022/12/05 03:16:22;;;;;;;0.05;0.05;;;3.20;99.90;;;;;;5010355;23;20049;-85
2022/12/05 03:18:54;;;;;;;0.10;0.10;;;3.10;99.90;;;;;;4990420;28;20076;-85
2022/12/05 03:21:29;;;;;;;0.00;0.00;;;3.20;99.90;;;;;;4993390;28;20526;-85
2022/12/05 03:24:01;;;;;;;0.10;0.10;;;3.20;99.90;;;;;;4991318;28;20139;-85
2022/12/05 03:26:39;;;;;;;0.10;0.10;;;3.20;99.90;;;;;;4981780;28;20578;-85
2022/12/05 03:29:18;;;;;;;0.00;0.00;;;3.30;99.90;;;;;;4969610;28;20137;-85
2022/12/05 03:31:53;;;;;;;0.10;0.10;;;3.30;99.90;;;;;;4967605;28;20050;-86
2022/12/05 03:34:31;;;;;;;0.10;0.10;;;3.30;99.90;;;;;;4972831;28;20145;-84
2022/12/05 03:37:04;;;;;;;0.00;0.00;;;3.30;99.90;;;;;;4974540;28;20121;-85
2022/12/05 03:39:34;;;;;;;0.00;0.00;;;3.40;99.90;;;;;;4986796;28;20089;-85
2022/12/05 03:42:08;;;;;;;0.00;0.00;;;3.40;99.90;;;;;;4987264;28;20555;-85
2022/12/05 03:44:43;;;;;;;0.10;0.10;;;3.40;99.90;;;;;;4987059;28;20471;-85
2022/12/05 03:47:16;;;;;;;0.10;0.10;;;3.40;99.90;;;;;;4987764;28;20495;-86
2022/12/05 03:49:48;;;;;;;0.10;0.10;;;3.40;99.90;;;;;;4972243;28;20077;-85
2022/12/05 03:52:19;;;;;;;0.10;0.10;;;3.40;99.90;;;;;;4985409;28;20117;-85
2022/12/05 03:54:51;;;;;;;0.10;0.10;;;3.50;99.90;;;;;;4988322;28;20525;-85
2022/12/05 03:57:23;;;;;;;0.10;0.10;;;3.50;99.90;;;;;;4990775;28;20046;-86
2022/12/05 03:59:56;;;;;;;0.10;0.10;;;3.50;99.90;;;;;;4973943;28;20050;-85
2022/12/05 04:02:29;;;;;;;0.10;0.10;;;3.40;99.90;;;;;;4984728;28;20054;-85
2022/12/05 04:05:02;;;;;;;0.10;0.10;;;3.80;99.90;;;;;;4972058;28;20518;-85
2022/12/05 04:07:32;;;;;;;0.10;0.10;;;3.30;99.90;;;;;;4989282;28;20084;-85
2022/12/05 04:10:04;;;;;;;0.10;0.10;;;3.30;99.90;;;;;;4987010;28;20042;-85
2022/12/05 04:12:33;;;;;;;0.10;0.10;;;3.20;99.90;;;;;;4987925;28;20116;-86
2022/12/05 04:15:05;;;;;;;0.10;0.10;;;3.30;99.90;;;;;;4972521;28;20105;-84
2022/12/05 04:17:39;;;;;;;0.10;0.10;;;3.40;99.90;;;;;;4988953;28;20054;-85
2022/12/05 04:22:58;;;;;;;0.10;0.10;;;;;;;;;;4989018;28;20148;-86
2022/12/05 04:25:34;;;;;;;0.10;0.10;;;3.10;99.90;;;;;;4987562;28;20073;-85
2022/12/05 04:28:20;;;;;;;0.10;0.10;;;3.10;99.90;;;;;;4989929;28;20042;-85
2022/12/05 04:30:52;;;;;;;0.10;0.10;;;3.00;99.90;;;;;;4965567;28;20050;-85
2022/12/05 04:33:28;;;;;;;0.10;0.10;;;3.00;99.90;;;;;;4972778;28;20065;-85
2022/12/05 04:36:02;;;;;;;0.10;0.10;;;2.90;99.90;;;;;;4981348;28;20077;-85
2022/12/05 04:38:34;;;;;;;0.10;0.10;;;2.90;99.90;;;;;;4983935;28;20129;-86
2022/12/05 04:41:04;;;;;;;0.10;0.10;;;2.80;99.90;;;;;;4997071;28;20188;-84
2022/12/05 04:43:35;;;;;;;0.05;0.05;;;2.80;99.90;;;;;;4972012;28;20081;-86
2022/12/05 04:46:05;;;;;;;0.10;0.10;;;2.80;99.90;;;;;;4965311;28;20584;-85
2022/12/05 04:48:35;;;;;;;0.10;0.10;;;2.70;99.90;;;;;;4985027;28;20764;-86
2022/12/05 04:51:06;;;;;;;0.00;0.00;;;2.70;99.90;;;;;;4970042;28;20051;-85
2022/12/05 04:53:33;;;;;;;0.10;0.10;;;;;;;;;;4972720;28;20097;-85
2022/12/05 04:56:04;;;;;;;0.10;0.10;;;2.80;99.90;;;;;;4992598;28;20125;-85
2022/12/05 04:58:31;;;;;;;0.05;0.05;;;2.90;99.90;;;;;;4983157;28;20308;-85
2022/12/05 05:01:04;;;;;;;0.10;0.10;;;2.90;99.90;;;;;;4969886;28;20492;-85
2022/12/05 05:03:36;;;;;;;0.00;0.00;;;2.90;99.90;;;;;;4974552;28;20074;-85
2022/12/05 05:06:06;;;;;;;0.10;0.10;;;2.80;99.90;;;;;;4970394;28;20040;-85
2022/12/05 05:08:33;;;;;;;0.10;0.10;;;;;;;;;;4977247;28;20061;-85
2022/12/05 05:11:05;;;;;;;0.10;0.10;;;2.90;99.90;;;;;;4980687;28;20061;-85
2022/12/05 05:13:32;;;;;;;0.10;0.10;;;3.00;99.90;;;;;;4991793;28;20074;-86
2022/12/05 05:15:59;;;;;;;0.10;0.10;;;3.00;99.90;;;;;;4981362;28;20042;-85
2022/12/05 05:18:26;;;;;;;0.10;0.10;;;3.00;99.90;;;;;;4972280;28;20057;-86
2022/12/05 05:20:53;;;;;;;0.10;0.10;;;;;;;;;;4973234;28;20097;-85
2022/12/05 05:23:21;;;;;;;0.10;0.10;;;3.00;99.90;;;;;;4971761;28;20779;-85
2022/12/05 05:25:53;;;;;;;0.10;0.10;;;2.90;99.90;;;;;;4976534;28;20122;-86
2022/12/05 05:28:20;;;;;;;0.10;0.10;;;;;;;;;;4975368;28;20042;-83
2022/12/05 05:30:48;;;;;;;0.08;0.08;;;;;;;;;;4973748;28;20515;-85
2022/12/05 05:33:15;;;;;;;0.10;0.10;;;;;;;;;;4980637;28;20125;-86
2022/12/05 05:35:42;;;;;;;0.10;0.10;;;;;;;;;;4970476;28;20050;-82
2022/12/05 05:38:09;;;;;;;0.00;0.00;;;2.80;99.90;;;;;;4971543;28;20041;-86
2022/12/05 05:40:37;;;;;;;0.10;0.10;;;2.80;99.90;;;;;;4991574;28;20132;-86
2022/12/05 05:43:04;;;;;;;0.00;0.00;;;2.80;99.90;;;;;;4987389;28;20085;-85
2022/12/05 05:45:31;;;;;;;0.10;0.10;;;;;;;;;;4978633;28;20129;-86
2022/12/05 05:47:59;;;;;;;0.10;0.10;;;;;;;;;;4978786;28;20426;-85
2022/12/05 05:50:26;;;;;;;0.10;0.10;;;;;;;;;;4989008;28;20078;-86
2022/12/05 05:52:53;;;;;;;0.10;0.10;;;;;;;;;;4976928;28;20110;-85
2022/12/05 05:55:20;;;;;;;0.10;0.10;;;;;;;;;;4988268;28;20471;-85
2022/12/05 05:57:49;;;;;;;0.10;0.10;;;3.00;99.90;;;;;;4972587;28;20483;-85
2022/12/05 06:00:16;;;;;;;0.10;0.10;;;3.00;99.90;;;;;;4989384;28;20594;-84
2022/12/05 06:02:44;;;;;;;0.10;0.10;;;;;;;;;;4976408;28;20062;-82
2022/12/05 06:05:11;;;;;;;0.10;0.10;;;;;;;;;;4971976;28;20570;-85
2022/12/05 06:07:38;;;;;;;0.10;0.10;;;;;;;;;;4973051;28;20142;-85
2022/12/05 06:10:07;;;;;;;0.03;0.03;;;3.00;99.90;;;;;;4988459;28;20061;-84
2022/12/05 06:12:34;;;;;;;0.10;0.10;;;;;;;;;;4984512;28;20137;-84
2022/12/05 06:15:04;;;;;;;0.10;0.10;;;3.00;99.90;;;;;;4995702;28;20120;-85
2022/12/05 06:17:31;;;;;;;0.07;0.07;;;3.00;99.90;;;;;;4981825;28;20497;-85
2022/12/05 06:19:58;;;;;;;0.05;0.05;;;;;;;;;;4976090;28;20737;-87
2022/12/05 06:22:25;;;;;;;0.10;0.10;;;;;;;;;;4972026;28;20054;-85
2022/12/05 06:24:52;;;;;;;0.10;0.10;;;3.10;99.90;;;;;;4986175;28;20496;-85
2022/12/05 06:27:19;;;;;;;0.10;0.10;;;;;;;;;;4989949;28;20523;-86
2022/12/05 06:29:46;;;;;;;0.10;0.10;;;;;;;;;;4974530;28;20047;-85
2022/12/05 06:32:15;;;;;;;0.10;0.10;;;3.20;99.90;;;;;;4973689;28;20105;-86
2022/12/05 06:34:42;;;;;;;0.10;0.10;;;;;;;;;;4976732;28;20038;-86
2022/12/05 06:37:09;;;;;;;0.10;0.10;;;;;;;;;;4994217;28;20038;-85
2022/12/05 06:39:37;;;;;;;0.10;0.10;;;;;;;;;;4992960;28;20496;-85
2022/12/05 06:42:04;;;;;;;0.00;0.00;;;;;;;;;;4975336;28;20077;-85
2022/12/05 06:44:32;;;;;;;0.10;0.10;;;;;;;;;;4991336;28;20046;-85
2022/12/05 06:46:59;;;;;;;0.10;0.10;;;;;;;;;;4987619;28;20066;-85
2022/12/05 06:49:31;;;;;;;0.10;0.10;;;3.50;99.90;;;;;;4971176;28;20053;-85
2022/12/05 06:52:03;;;;;;;0.10;0.10;;;3.50;99.90;;;;;;4973964;28;20435;-85
2022/12/05 06:54:31;;;;;;;0.10;0.10;;;;;;;;;;4972602;28;20459;-86
2022/12/05 06:56:58;;;;;;;0.10;0.10;;;;;;;;;;4974850;28;20038;-85
2022/12/05 06:59:25;;;;;;;0.10;0.10;;;3.50;99.90;;;;;;4971550;28;20070;-85
2022/12/05 07:01:52;;;;;;;0.10;0.10;;;3.50;99.90;;;;;;4975135;28;20077;-84
2022/12/05 07:04:24;;;;;;;0.10;0.10;;;3.50;99.90;;;;;;4976767;28;20225;-85
2022/12/05 07:06:54;;;;;;;0.10;0.10;;;3.40;99.90;;;;;;4975497;28;20088;-84
2022/12/05 07:09:44;;;;;;;0.10;0.10;;;3.20;99.90;;;;;;4978064;28;20487;-85
2022/12/05 07:12:10;;;;;;;0.10;0.10;;;;;;;;;;4988126;28;20496;-85
2022/12/05 07:14:37;;;;;;;0.10;0.10;;;;;;;;;;4973196;28;20101;-84
2022/12/05 07:17:14;;;;;;;0.00;0.00;;;3.40;99.90;;;;;;4976164;28;20045;-85
2022/12/05 07:19:41;;;;;;;0.10;0.10;;;3.30;99.90;;;;;;4988343;28;20047;-85
2022/12/05 07:22:10;;;;;;;0.10;0.10;;;3.20;99.90;;;;;;4985508;28;20081;-86
2022/12/05 07:24:42;;;;;;;0.17;0.17;;;3.20;99.90;;;;;;4971512;28;20050;-85
2022/12/05 07:27:09;;;;;;;0.10;0.10;;;3.20;99.90;;;;;;4985136;28;20113;-85
2022/12/05 07:29:36;;;;;;;0.10;0.10;;;3.10;99.90;;;;;;4973371;28;20129;-86
2022/12/05 07:32:03;;;;;;;0.10;0.10;;;3.20;99.90;;;;;;4973997;28;20057;-86
2022/12/05 07:34:30;;;;;;;0.10;0.10;;;;;;;;;;4972691;28;20060;-85
2022/12/05 07:36:57;;;;;;;0.10;0.10;;;3.30;99.90;;;;;;4964263;28;20175;-85
2022/12/05 07:39:25;;;;;;;0.10;0.10;;;3.30;99.90;;;;;;4975696;28;20056;-85
2022/12/05 07:41:53;;;;;;;0.10;0.10;;;;;;;;;;4987771;28;20046;-84
2022/12/05 07:44:20;;;;;;;0.10;0.10;;;3.30;99.90;;;;;;4972606;28;20082;-85
2022/12/05 07:46:47;;;;;;;0.10;0.10;;;;;;;;;;4992654;28;20114;-85
2022/12/05 07:49:17;;;;;;;0.10;0.10;;;;;;;;;;4973454;28;20503;-85
2022/12/05 07:51:44;;;;;;;0.20;0.20;;;;;;;;;;4971762;28;20081;-85
2022/12/05 07:54:11;;;;;;;0.10;0.10;;;;;;;;;;4974598;28;20042;-85
2022/12/05 07:56:39;;;;;;;0.10;0.10;;;3.40;99.90;;;;;;4987317;28;20633;-85
2022/12/05 07:59:13;;;;;;;0.10;0.10;;;;;;;;;;4972852;28;20058;-85
2022/12/05 08:01:40;;;;;;;0.10;0.10;;;;;;;;;;4988976;28;20074;-85
2022/12/05 08:04:07;;;;;;;0.10;0.10;;;3.40;99.90;;;;;;4992296;28;20496;-84
2022/12/05 08:06:41;;;;;;;0.10;0.10;;;3.40;99.90;;;;;;4971213;28;20047;-87
2022/12/05 08:09:08;;;;;;;0.10;0.10;;;;;;;;;;4985070;28;20050;-85
2022/12/05 08:11:35;;;;;;;0.00;0.00;;;;;;;;;;4988384;28;20467;-85
2022/12/05 08:14:05;;;;;;;0.10;0.10;;;3.40;99.90;;;;;;4971695;28;20108;-84
2022/12/05 08:16:33;;;;;;;0.10;0.10;;;3.40;99.90;;;;;;4989534;28;20034;-86
2022/12/05 08:19:02;;;;;;;0.10;0.10;;;3.40;99.90;;;;;;4989073;28;20104;-85
2022/12/05 08:21:30;;;;;;;0.10;0.10;;;;;;;;;;4979792;28;20138;-84
2022/12/05 08:23:57;;;;;;;0.10;0.10;;;4.90;99.90;;;;;;4973746;28;20424;-86
2022/12/05 08:26:26;;;;;;;0.10;0.10;;;3.30;99.90;;;;;;4972103;28;20047;-85
2022/12/05 08:28:56;;;;;;;0.10;0.10;;;3.30;99.90;;;;;;4987113;28;20401;-85
2022/12/05 08:31:26;;;;;;;0.10;0.10;;;3.30;99.90;;;;;;4977061;28;20077;-83
2022/12/05 08:33:57;;;;;;;0.10;0.10;;;3.30;99.90;;;;;;4990510;28;20092;-85
2022/12/05 08:36:27;;;;;;;0.10;0.10;;;3.30;99.90;;;;;;4965525;28;20073;-87
2022/12/05 08:38:55;;;;;;;0.10;0.10;;;3.30;99.90;;;;;;4971491;28;20108;-85
2022/12/05 08:41:27;;;;;;;0.10;0.10;;;;;;;;;;4973690;28;20038;-86
2022/12/05 08:43:54;;;;;;;0.10;0.10;;;3.30;99.90;;;;;;4970459;28;20149;-84
2022/12/05 08:46:21;;;;;;;0.10;0.10;;;;;;;;;;4964862;28;20038;-84
2022/12/05 08:48:50;;;;;;;0.10;0.10;;;3.30;99.90;;;;;;4968149;28;20069;-82
2022/12/05 08:51:17;;;;;;;0.10;0.10;;;3.30;99.90;;;;;;4987415;28;20038;-84
2022/12/05 08:53:44;;;;;;;0.10;0.10;;;;;;;;;;4977779;28;20054;-84
2022/12/05 08:56:12;;;;;;;0.10;0.10;;;3.30;99.90;;;;;;4974814;28;20074;-84
2022/12/05 08:58:39;;;;;;;0.10;0.10;;;3.30;99.90;;;;;;4992144;28;20082;-84
2022/12/05 09:01:08;;;;;;;0.10;0.10;;;3.30;99.90;;;;;;4988626;28;20487;-85
2022/12/05 09:03:35;;;;;;;0.10;0.10;;;3.30;99.90;;;;;;4978827;28;20084;-84
2022/12/05 09:06:06;;;;;;;0.10;0.10;;;3.40;99.90;;;;;;4977956;28;20504;-84
2022/12/05 09:08:34;;;;;;;0.10;0.10;;;3.40;99.90;;;;;;4994933;28;20078;-85
2022/12/05 09:11:04;;;;;;;0.10;0.10;;;3.40;99.90;;;;;;4993596;28;20112;-85
2022/12/05 09:13:31;;;;;;;0.10;0.10;;;;;;;;;;4994301;28;20042;-85
2022/12/05 09:18:34;;;;;;;0.10;0.10;;;3.40;99.90;;;;;;5004672;28;20411;-84
2022/12/05 09:21:06;;;;;;;0.10;0.10;;;3.40;99.90;;;;;;4991044;28;20096;-84
2022/12/05 09:23:33;;;;;;;0.10;0.10;;;3.40;99.90;;;;;;4996538;28;20054;-84
2022/12/05 09:26:01;;;;;;;0.10;0.10;;;;;;;;;;4981044;28;20440;-84
2022/12/05 09:28:28;;;;;;;0.10;0.10;;;;;;;;;;4965614;28;20280;-83
2022/12/05 09:30:56;;;;;;;0.10;0.10;;;3.40;99.90;;;;;;4985338;28;20080;-83
2022/12/05 09:33:23;;;;;;;0.05;0.05;;;3.50;99.90;;;;;;4988362;28;20058;-84
2022/12/05 09:35:50;;;;;;;0.10;0.10;;;3.50;99.90;;;;;;4976196;28;20104;-84
2022/12/05 09:38:18;;;;;;;0.10;0.10;;;3.50;99.90;;;;;;4978695;28;20519;-83
2022/12/05 09:40:48;;;;;;;0.10;0.10;;;3.40;99.90;;;;;;4983965;28;20081;-83
2022/12/05 09:43:25;;;;;;;0.00;0.00;;;3.40;99.90;;;;;;4974117;28;20054;-84
2022/12/05 09:46:00;;;;;;;0.10;0.10;;;3.40;99.90;;;;;;4970154;28;20086;-84
2022/12/05 09:48:28;;;;;;;0.10;0.10;;;3.40;99.90;;;;;;4987260;28;20049;-84
2022/12/05 09:50:58;;;;;;;0.10;0.10;;;3.50;99.90;;;;;;4991052;28;20134;-84
2022/12/05 09:53:30;;;;;;;0.10;0.10;;;3.50;99.90;;;;;;4974877;28;20097;-83
2022/12/05 09:56:03;;;;;;;0.03;0.03;;;3.50;99.90;;;;;;4972575;28;20085;-83
2022/12/05 09:58:40;;;;;;;0.10;0.10;;;3.50;99.90;;;;;;4972547;28;20046;-84
2022/12/05 10:01:31;;;;;;;0.10;0.10;;;3.50;99.90;;;;;;4968075;28;20057;-83
2022/12/05 10:04:33;;;;;;;0.13;0.13;;;3.50;99.90;;;;;;4972357;28;20061;-83
2022/12/05 10:07:07;;;;;;;0.10;0.10;;;3.60;99.90;;;;;;4964678;28;20035;-83
2022/12/05 10:09:50;;;;;;;0.10;0.10;;;3.60;99.90;;;;;;4983699;28;20049;-83
2022/12/05 10:12:32;;;;;;;0.10;0.10;;;3.60;99.90;;;;;;4984867;28;20074;-83
2022/12/05 10:15:04;;;;;;;0.10;0.10;;;3.60;99.90;;;;;;4974696;28;20100;-82
2022/12/05 10:17:34;;;;;;;0.10;0.10;;;3.60;99.90;;;;;;4984496;28;20397;-83
2022/12/05 10:20:10;;;;;;;0.10;0.10;;;3.60;99.90;;;;;;4978741;28;20046;-82
2022/12/05 10:22:42;;;;;;;0.10;0.10;;;3.60;99.90;;;;;;4967943;28;20046;-83
2022/12/05 10:25:15;;;;;;;0.10;0.10;;;3.70;99.90;;;;;;4976872;28;20081;-83
2022/12/05 10:27:48;;;;;;;0.10;0.10;;;3.70;99.90;;;;;;4965650;28;20078;-82
2022/12/05 10:30:18;;;;;;;0.10;0.10;;;3.60;99.90;;;;;;4972733;28;20117;-82
2022/12/05 10:32:52;;;;;;;0.10;0.10;;;3.60;99.90;;;;;;4966794;28;20415;-83
2022/12/05 10:35:22;;;;;;;0.00;0.00;;;3.60;99.90;;;;;;4990423;28;20061;-83
2022/12/05 10:37:51;;;;;;;0.10;0.10;;;3.70;99.90;;;;;;4984074;28;20145;-82
2022/12/05 10:40:20;;;;;;;0.10;0.10;;;3.70;99.90;;;;;;4966050;28;20074;-82
2022/12/05 10:42:48;;;;;;;0.10;0.10;;;3.60;99.90;;;;;;4967728;28;20047;-83
2022/12/05 10:45:18;;;;;;;0.10;0.10;;;3.70;99.90;;;;;;4990154;28;20062;-83
2022/12/05 10:47:45;;;;;;;;;;;3.70;99.90;;;;;;4992781;28;20089;-83
2022/12/05 10:50:26;;;;;;;0.10;0.10;;;3.70;99.90;;;;;;4988402;28;19988;-82
2022/12/05 10:52:55;;;;;;;0.10;0.10;;;3.80;99.90;;;;;;4990908;28;20082;-83
2022/12/05 10:55:29;;;;;;;0.10;0.10;;;3.80;99.90;;;;;;4986732;28;20046;-83
2022/12/05 10:58:09;;;;;;;0.10;0.10;;;3.80;99.90;;;;;;4978511;28;20038;-83
2022/12/05 11:00:45;;;;;;;0.10;0.10;;;3.70;99.90;;;;;;4976999;28;20049;-81
2022/12/05 11:03:26;;;;;;;0.10;0.10;;;3.70;99.90;;;;;;4979945;28;20043;-83
2022/12/05 11:05:55;;;;;;;0.13;0.13;;;3.60;99.90;;;;;;4972638;28;20074;-83
2022/12/05 11:08:24;;;;;;;0.10;0.10;;;3.70;99.90;;;;;;4974400;28;20098;-82
2022/12/05 11:11:21;;;;;;;0.10;0.10;;;3.70;99.90;;;;;;4984803;28;20078;-82
2022/12/05 11:13:52;;;;;;;0.10;0.10;;;3.40;99.90;;;;;;4969283;28;20050;-83
2022/12/05 11:16:23;;;;;;;0.10;0.10;;;3.60;99.90;;;;;;4987409;28;20054;-83
2022/12/05 11:18:50;;;;;;;0.10;0.10;;;3.60;99.90;;;;;;4970185;28;20077;-82
2022/12/05 11:21:18;;;;;;;0.10;0.10;;;;;;;;;;4990404;28;20073;-83
2022/12/05 11:23:46;;;;;;;0.20;0.20;;;3.80;99.90;;;;;;4972429;28;20440;-83
2022/12/05 11:26:33;;;;;;;0.10;0.10;;;3.90;99.90;;;;;;4983688;28;20046;-83
2022/12/05 11:29:01;;;;;;;0.10;0.10;;;;;;;;;;4972177;28;20603;-82
2022/12/05 11:31:29;;;;;;;0.10;0.10;;;3.90;99.90;;;;;;4968197;28;20046;-82
2022/12/05 11:34:02;;;;;;;0.10;0.10;;;3.90;99.90;;;;;;4961877;28;20101;-83
2022/12/05 11:36:38;;;;;;;0.10;0.10;;;4.10;99.90;;;;;;4957449;28;20511;-83
2022/12/05 11:39:05;;;;;;;0.10;0.10;;;;;;;;;;4956263;28;20034;-83
2022/12/05 11:42:04;;;;;;;0.10;0.10;;;4.00;99.90;;;;;;4979083;28;20444;-83
2022/12/05 11:45:02;;;;;;;0.00;0.00;;;4.10;99.90;;;;;;4975693;28;20425;-83
2022/12/05 11:47:44;;;;;;;0.10;0.10;;;4.10;99.90;;;;;;4964585;28;20583;-83
2022/12/05 11:50:26;;;;;;;0.10;0.10;;;4.10;99.90;;;;;;4977336;28;20105;-83
2022/12/05 11:53:04;;;;;;;0.10;0.10;;;4.10;99.90;;;;;;4965025;28;20500;-83
2022/12/05 11:55:39;;;;;;;0.10;0.10;;;4.00;99.90;;;;;;4956407;28;20113;-83
2022/12/05 11:58:36;;;;;;;0.10;0.10;;;4.10;99.90;;;;;;4979165;28;20125;-82
2022/12/05 12:01:17;;;;;;;0.10;0.10;;;4.00;99.90;;;;;;4968988;28;20054;-82
2022/12/05 12:04:12;;;;;;;0.10;0.10;;;4.10;99.90;;;;;;4968883;28;20050;-82
2022/12/05 12:06:49;;;;;;;0.10;0.10;;;4.10;99.90;;;;;;4981880;28;20077;-83
2022/12/05 12:09:29;;;;;;;0.10;0.10;;;4.10;99.90;;;;;;4982844;28;20117;-84
2022/12/05 12:12:03;;;;;;;0.15;0.15;;;4.20;99.90;;;;;;4963470;28;20502;-82
2022/12/05 12:14:36;;;;;;;0.10;0.10;;;4.20;99.90;;;;;;4966325;28;20043;-82
2022/12/05 12:17:15;;;;;;;0.10;0.10;;;4.10;99.90;;;;;;4978456;28;20121;-82
2022/12/05 12:20:01;;;;;;;0.10;0.10;;;4.10;99.90;;;;;;4962709;28;20413;-82
2022/12/05 12:22:53;;;;;;;0.10;0.10;;;4.20;99.90;;;;;;4969044;28;20500;-82
2022/12/05 12:25:32;;;;;;;0.10;0.10;;;4.10;99.90;;;;;;4965805;28;20116;-83
2022/12/05 12:28:09;;;;;;;0.15;0.15;;;4.10;99.90;;;;;;4962226;28;20043;-83
2022/12/05 12:30:51;;;;;;;0.10;0.10;;;4.10;99.90;;;;;;4975250;28;20398;-82
2022/12/05 12:33:31;;;;;;;0.10;0.10;;;4.10;99.90;;;;;;4982178;28;20074;-82
2022/12/05 12:36:02;;;;;;;;;;;4.10;99.90;;;;;;4969818;28;20522;-83
2022/12/05 12:39:07;;;;;;;0.10;0.10;;;4.10;99.90;;;;;;4980433;28;19926;-82
2022/12/05 12:41:58;;;;;;;0.10;0.10;;;4.00;99.90;;;;;;4972384;28;20072;-82
2022/12/05 12:44:47;;;;;;;0.10;0.10;;;4.00;99.90;;;;;;4988421;28;20073;-83
2022/12/05 12:47:22;;;;;;;0.10;0.10;;;4.00;99.90;;;;;;4969867;28;20129;-83
2022/12/05 12:50:02;;;;;;;0.10;0.10;;;4.10;99.90;;;;;;4974901;28;20109;-83
2022/12/05 12:52:39;;;;;;;0.10;0.10;;;4.10;99.90;;;;;;4975948;28;20053;-83
2022/12/05 12:55:20;;;;;;;0.00;0.00;;;4.10;99.90;;;;;;4977197;28;20066;-83
2022/12/05 12:58:01;;;;;;;0.10;0.10;;;4.10;99.90;;;;;;4967536;28;20471;-82
2022/12/05 13:00:40;;;;;;;0.10;0.10;;;4.10;99.90;;;;;;4986240;28;20112;-82
2022/12/05 13:03:12;;;;;;;0.10;0.10;;;4.20;99.90;;;;;;4976971;28;20042;-83
2022/12/05 13:05:46;;;;;;;0.10;0.10;;;4.20;99.90;;;;;;4967196;28;20141;-82
2022/12/05 13:08:19;;;;;;;0.10;0.10;;;4.10;99.90;;;;;;4964641;28;20527;-83
2022/12/05 13:10:48;;;;;;;0.10;0.10;;;4.20;99.90;;;;;;4977774;28;20077;-83
2022/12/05 13:13:19;;;;;;;0.10;0.10;;;4.20;99.90;;;;;;4974995;28;20504;-83
2022/12/05 13:15:49;;;;;;;0.10;0.10;;;4.30;99.90;;;;;;4996201;28;20133;-82
2022/12/05 13:18:18;;;;;;;0.13;0.13;;;4.30;99.90;;;;;;4981706;28;20090;-83
2022/12/05 13:20:49;;;;;;;0.10;0.10;;;4.30;99.90;;;;;;4974865;28;20340;-82
2022/12/05 13:23:19;;;;;;;0.10;0.10;;;4.30;99.90;;;;;;4971726;28;20047;-83
2022/12/05 13:25:47;;;;;;;0.10;0.10;;;4.30;99.90;;;;;;4964285;28;20073;-82
2022/12/05 13:28:28;;;;;;;0.20;0.20;;;4.30;99.90;;;;;;4977129;28;20090;-82
2022/12/05 13:31:03;;;;;;;0.10;0.10;;;4.30;99.90;;;;;;4962312;28;20512;-81
2022/12/05 13:33:33;;;;;;;0.10;0.10;;;4.30;99.90;;;;;;4959054;28;20045;-82
2022/12/05 13:44:37;;;;;;;0.10;0.10;;;4.20;99.90;;;;;;4978749;28;20050;-82
2022/12/05 13:47:06;;;;;;;0.10;0.10;;;4.20;99.90;;;;;;4976072;28;20534;-82
2022/12/05 13:49:42;;;;;;;0.10;0.10;;;4.20;99.90;;;;;;4963929;28;20065;-82
2022/12/05 13:52:17;;;;;;;0.10;0.10;;;4.20;99.90;;;;;;4976266;28;20053;-82
2022/12/05 13:54:49;;;;;;;0.10;0.10;;;4.20;99.90;;;;;;4970233;28;20519;-83